createdAt,value
2017-09-12T00:00:24.705Z,23.09
2017-09-12T00:00:52.846Z,23.07
2017-09-12T00:01:20.889Z,22.96
2017-09-12T00:01:48.975Z,22.94
2017-09-12T00:02:17.004Z,22.99
2017-09-12T00:02:45.067Z,22.97
2017-09-12T00:03:13.084Z,22.96
2017-09-12T00:03:41.126Z,22.85
2017-09-12T00:04:09.054Z,22.91
2017-09-12T00:04:37.121Z,22.82
2017-09-12T00:05:05.363Z,22.81
2017-09-12T00:05:33.300Z,22.78
2017-09-12T00:06:01.369Z,22.79
2017-09-12T00:06:29.532Z,22.7
2017-09-12T00:06:57.564Z,22.71
2017-09-12T00:07:25.508Z,22.7
2017-09-12T00:07:53.702Z,22.71
2017-09-12T00:08:21.814Z,22.66
2017-09-12T00:08:49.953Z,22.66
2017-09-12T00:09:18.102Z,22.67
2017-09-12T00:09:46.162Z,22.59
2017-09-12T00:10:14.303Z,22.59
2017-09-12T00:10:42.449Z,22.51
2017-09-12T00:11:10.404Z,22.51
2017-09-12T00:11:38.544Z,22.54
2017-09-12T00:12:06.700Z,22.52
2017-09-12T00:12:34.717Z,22.46
2017-09-12T00:13:02.791Z,22.46
2017-09-12T00:13:30.931Z,22.48
2017-09-12T00:13:58.976Z,22.36
2017-09-12T00:14:27.148Z,22.39
2017-09-12T00:14:55.288Z,22.38
2017-09-12T00:15:23.329Z,22.33
2017-09-12T00:15:51.249Z,22.24
2017-09-12T00:16:19.108Z,22.31
2017-09-12T00:16:47.189Z,22.33
2017-09-12T00:17:15.064Z,22.27
2017-09-12T00:17:42.891Z,22.18
2017-09-12T00:18:10.763Z,22.24
2017-09-12T00:18:38.696Z,22.23
2017-09-12T00:19:06.641Z,22.14
2017-09-12T00:19:34.697Z,22.14
2017-09-12T00:20:02.842Z,22.11
2017-09-12T00:20:30.670Z,22.04
2017-09-12T00:20:58.619Z,21.99
2017-09-12T00:21:26.663Z,21.99
2017-09-12T00:21:54.704Z,21.99
2017-09-12T00:22:22.866Z,21.99
2017-09-12T00:22:50.821Z,21.86
2017-09-12T00:23:18.901Z,21.97
2017-09-12T00:23:46.967Z,22
2017-09-12T00:24:14.881Z,22
2017-09-12T00:24:42.709Z,22
2017-09-12T00:25:10.936Z,21.93
2017-09-12T00:25:39.015Z,21.97
2017-09-12T00:26:07.082Z,22
2017-09-12T00:26:35.127Z,21.96
2017-09-12T00:27:03.059Z,21.9
2017-09-12T00:27:31.107Z,22
2017-09-12T00:27:59.215Z,22.02
2017-09-12T00:28:27.370Z,21.96
2017-09-12T00:28:55.323Z,21.9
2017-09-12T00:29:23.256Z,21.93
2017-09-12T00:29:51.311Z,22.02
2017-09-12T00:30:19.350Z,21.86
2017-09-12T00:30:47.385Z,21.9
2017-09-12T00:31:15.517Z,21.83
2017-09-12T00:31:43.565Z,21.9
2017-09-12T00:32:11.498Z,21.89
2017-09-12T00:32:39.534Z,21.89
2017-09-12T00:33:07.677Z,21.85
2017-09-12T00:33:35.732Z,21.85
2017-09-12T00:34:03.588Z,21.7
2017-09-12T00:34:31.742Z,21.76
2017-09-12T00:34:59.895Z,21.74
2017-09-12T00:35:28.137Z,21.76
2017-09-12T00:35:56.184Z,21.73
2017-09-12T00:36:24.324Z,21.56
2017-09-12T00:36:52.490Z,21.71
2017-09-12T00:37:20.519Z,21.55
2017-09-12T00:37:48.554Z,21.53
2017-09-12T00:38:16.697Z,21.52
2017-09-12T00:38:44.639Z,21.59
2017-09-12T00:39:12.666Z,21.59
2017-09-12T00:39:40.765Z,21.53
2017-09-12T00:40:08.914Z,21.48
2017-09-12T00:40:36.955Z,21.55
2017-09-12T00:41:05.046Z,21.46
2017-09-12T00:41:33.170Z,21.43
2017-09-12T00:42:01.216Z,21.45
2017-09-12T00:42:29.068Z,21.43
2017-09-12T00:42:57.120Z,21.41
2017-09-12T00:43:25.186Z,21.38
2017-09-12T00:43:53.236Z,21.43
2017-09-12T00:44:21.368Z,21.38
2017-09-12T00:44:49.326Z,21.33
2017-09-12T00:45:17.577Z,21.37
2017-09-12T00:45:45.783Z,21.36
2017-09-12T00:46:13.828Z,21.3
2017-09-12T00:46:41.972Z,21.27
2017-09-12T00:47:10.003Z,21.34
2017-09-12T00:47:37.870Z,21.22
2017-09-12T00:48:05.896Z,21.25
2017-09-12T00:48:33.951Z,21.27
2017-09-12T00:49:01.894Z,21.25
2017-09-12T00:49:29.933Z,21.25
2017-09-12T00:49:58.066Z,21.23
2017-09-12T00:50:26.234Z,21.23
2017-09-12T00:50:54.271Z,21.23
2017-09-12T00:51:22.288Z,21.22
2017-09-12T00:51:50.425Z,21.15
2017-09-12T00:52:18.594Z,21.15
2017-09-12T00:52:46.620Z,21.15
2017-09-12T00:53:14.658Z,21.16
2017-09-12T00:53:42.599Z,21.21
2017-09-12T00:54:10.639Z,21.09
2017-09-12T00:54:38.368Z,21.21
2017-09-12T00:55:06.522Z,21.13
2017-09-12T00:55:34.759Z,21.13
2017-09-12T00:56:02.811Z,21.15
2017-09-12T00:56:30.837Z,21.21
2017-09-12T00:56:58.976Z,21.12
2017-09-12T00:57:27.106Z,21.25
2017-09-12T00:57:55.190Z,21.16
2017-09-12T00:58:23.025Z,21.3
2017-09-12T00:58:51.164Z,21.23
2017-09-12T00:59:19.199Z,21.25
2017-09-12T00:59:47.242Z,21.16
2017-09-12T01:00:15.207Z,21.23
2017-09-12T01:00:43.149Z,21.22
2017-09-12T01:01:11.199Z,21.3
2017-09-12T01:01:39.133Z,21.15
2017-09-12T01:02:07.101Z,21.12
2017-09-12T01:02:35.142Z,21.28
2017-09-12T01:03:03.188Z,21.28
2017-09-12T01:03:31.319Z,21.23
2017-09-12T01:03:59.302Z,21.27
2017-09-12T01:04:27.432Z,21.23
2017-09-12T01:04:55.482Z,21.27
2017-09-12T01:05:23.532Z,21.28
2017-09-12T01:05:51.563Z,21.28
2017-09-12T01:06:19.723Z,21.16
2017-09-12T01:06:47.694Z,21.25
2017-09-12T01:07:15.523Z,21.22
2017-09-12T01:07:43.569Z,21.28
2017-09-12T01:08:11.617Z,21.21
2017-09-12T01:08:39.568Z,21.22
2017-09-12T01:09:07.601Z,21.23
2017-09-12T01:09:35.314Z,21.23
2017-09-12T01:10:03.367Z,21.31
2017-09-12T01:10:31.512Z,21.28
2017-09-12T01:10:59.431Z,21.31
2017-09-12T01:11:27.361Z,21.22
2017-09-12T01:11:55.287Z,21.28
2017-09-12T01:12:23.217Z,21.25
2017-09-12T01:12:51.268Z,21.23
2017-09-12T01:13:19.327Z,21.3
2017-09-12T01:13:47.365Z,21.15
2017-09-12T01:14:15.320Z,21.15
2017-09-12T01:14:43.370Z,21.15
2017-09-12T01:15:11.416Z,21.09
2017-09-12T01:15:39.577Z,21.06
2017-09-12T01:16:07.594Z,21.06
2017-09-12T01:16:35.508Z,21.03
2017-09-12T01:17:03.497Z,21.03
2017-09-12T01:17:31.535Z,21.04
2017-09-12T01:17:59.675Z,21
2017-09-12T01:18:27.718Z,21.01
2017-09-12T01:18:55.759Z,20.96
2017-09-12T01:19:23.801Z,20.96
2017-09-12T01:19:52.296Z,20.86
2017-09-12T01:20:20.419Z,20.9
2017-09-12T01:20:48.679Z,20.9
2017-09-12T01:21:16.637Z,20.85
2017-09-12T01:21:44.658Z,20.9
2017-09-12T01:22:12.619Z,20.9
2017-09-12T01:22:40.780Z,20.85
2017-09-12T01:23:08.540Z,20.81
2017-09-12T01:23:36.728Z,20.81
2017-09-12T01:24:04.803Z,20.85
2017-09-12T01:24:32.820Z,20.76
2017-09-12T01:25:00.871Z,20.78
2017-09-12T01:25:28.936Z,20.78
2017-09-12T01:25:57.059Z,20.71
2017-09-12T01:26:25.120Z,20.68
2017-09-12T01:26:53.046Z,20.72
2017-09-12T01:27:21.094Z,20.67
2017-09-12T01:27:49.123Z,20.71
2017-09-12T01:28:17.180Z,20.6
2017-09-12T01:28:45.220Z,20.63
2017-09-12T01:29:13.371Z,20.6
2017-09-12T01:29:41.533Z,20.58
2017-09-12T01:30:09.466Z,20.6
2017-09-12T01:30:37.587Z,20.58
2017-09-12T01:31:05.673Z,20.6
2017-09-12T01:31:33.698Z,20.53
2017-09-12T01:32:01.661Z,20.53
2017-09-12T01:32:29.616Z,20.56
2017-09-12T01:32:57.936Z,20.44
2017-09-12T01:33:25.862Z,20.54
2017-09-12T01:33:53.871Z,20.57
2017-09-12T01:34:21.890Z,20.64
2017-09-12T01:34:50.009Z,20.56
2017-09-12T01:35:18.082Z,20.6
2017-09-12T01:35:46.030Z,20.61
2017-09-12T01:36:14.017Z,20.61
2017-09-12T01:36:41.935Z,20.61
2017-09-12T01:37:09.995Z,20.54
2017-09-12T01:37:38.031Z,20.6
2017-09-12T01:38:06.186Z,20.61
2017-09-12T01:38:34.229Z,20.56
2017-09-12T01:39:02.373Z,20.57
2017-09-12T01:39:30.545Z,20.57
2017-09-12T01:39:58.596Z,20.6
2017-09-12T01:40:26.641Z,20.58
2017-09-12T01:40:54.471Z,20.53
2017-09-12T01:41:22.497Z,20.46
2017-09-12T01:41:50.520Z,20.54
2017-09-12T01:42:18.483Z,20.46
2017-09-12T01:42:46.427Z,20.49
2017-09-12T01:43:14.553Z,20.34
2017-09-12T01:43:42.682Z,20.37
2017-09-12T01:44:10.716Z,20.32
2017-09-12T01:44:38.631Z,20.32
2017-09-12T01:45:06.786Z,20.32
2017-09-12T01:45:34.758Z,20.37
2017-09-12T01:46:02.920Z,20.35
2017-09-12T01:46:30.887Z,20.3
2017-09-12T01:46:58.916Z,20.42
2017-09-12T01:47:26.741Z,20.29
2017-09-12T01:47:54.878Z,20.27
2017-09-12T01:48:22.930Z,20.3
2017-09-12T01:48:50.940Z,20.27
2017-09-12T01:49:19.106Z,20.26
2017-09-12T01:49:46.953Z,20.25
2017-09-12T01:50:14.933Z,20.29
2017-09-12T01:50:43.005Z,20.23
2017-09-12T01:51:11.187Z,20.25
2017-09-12T01:51:39.214Z,20.26
2017-09-12T01:52:07.235Z,20.3
2017-09-12T01:52:35.388Z,20.32
2017-09-12T01:53:03.380Z,20.35
2017-09-12T01:53:31.318Z,20.32
2017-09-12T01:53:59.356Z,20.3
2017-09-12T01:54:27.493Z,20.35
2017-09-12T01:54:55.623Z,20.44
2017-09-12T01:55:23.653Z,20.56
2017-09-12T01:55:51.909Z,20.67
2017-09-12T01:56:19.926Z,20.76
2017-09-12T01:56:48.086Z,20.81
2017-09-12T01:57:16.130Z,20.83
2017-09-12T01:57:44.079Z,20.83
2017-09-12T01:58:12.217Z,20.9
2017-09-12T01:58:40.254Z,20.9
2017-09-12T01:59:08.284Z,20.88
2017-09-12T01:59:36.329Z,20.98
2017-09-12T02:00:04.373Z,20.97
2017-09-12T02:00:32.533Z,21.01
2017-09-12T02:01:00.658Z,21.03
2017-09-12T02:01:28.797Z,21.09
2017-09-12T02:01:56.935Z,21.04
2017-09-12T02:02:24.875Z,20.97
2017-09-12T02:02:53.059Z,21.13
2017-09-12T02:03:21.073Z,21.08
2017-09-12T02:03:49.238Z,21.08
2017-09-12T02:04:17.296Z,21.01
2017-09-12T02:04:45.243Z,21.04
2017-09-12T02:05:13.262Z,21.15
2017-09-12T02:05:41.402Z,21.3
2017-09-12T02:06:09.354Z,21.27
2017-09-12T02:06:37.392Z,21.31
2017-09-12T02:07:05.235Z,21.31
2017-09-12T02:07:33.173Z,21.34
2017-09-12T02:08:01.313Z,21.3
2017-09-12T02:08:29.370Z,21.41
2017-09-12T02:08:57.319Z,21.36
2017-09-12T02:09:25.455Z,21.37
2017-09-12T02:09:53.569Z,21.36
2017-09-12T02:10:21.495Z,21.38
2017-09-12T02:10:49.552Z,21.28
2017-09-12T02:11:17.766Z,21.33
2017-09-12T02:11:45.533Z,21.51
2017-09-12T02:12:13.658Z,21.37
2017-09-12T02:12:41.627Z,21.36
2017-09-12T02:13:09.373Z,21.41
2017-09-12T02:13:37.398Z,21.46
2017-09-12T02:14:05.417Z,21.41
2017-09-12T02:14:33.565Z,21.51
2017-09-12T02:15:01.511Z,21.49
2017-09-12T02:15:29.557Z,21.46
2017-09-12T02:15:57.499Z,21.45
2017-09-12T02:16:25.673Z,21.46
2017-09-12T02:16:53.618Z,21.45
2017-09-12T02:17:21.377Z,21.4
2017-09-12T02:17:49.546Z,21.37
2017-09-12T02:18:17.488Z,21.33
2017-09-12T02:18:45.267Z,21.41
2017-09-12T02:19:13.209Z,21.36
2017-09-12T02:19:41.355Z,21.27
2017-09-12T02:20:09.281Z,21.25
2017-09-12T02:20:37.021Z,21.12
2017-09-12T02:21:05.172Z,21.21
2017-09-12T02:21:33.209Z,21.06
2017-09-12T02:22:01.285Z,21.01
2017-09-12T02:22:29.395Z,20.98
2017-09-12T02:22:57.547Z,20.93
2017-09-12T02:23:25.586Z,20.9
2017-09-12T02:23:53.690Z,20.82
2017-09-12T02:24:21.735Z,20.78
2017-09-12T02:24:49.876Z,20.71
2017-09-12T02:25:18.034Z,20.68
2017-09-12T02:25:45.981Z,20.71
2017-09-12T02:26:14.180Z,20.61
2017-09-12T02:26:42.023Z,20.66
2017-09-12T02:27:10.154Z,20.49
2017-09-12T02:27:38.194Z,20.48
2017-09-12T02:28:06.106Z,20.51
2017-09-12T02:28:34.232Z,20.46
2017-09-12T02:29:02.256Z,20.42
2017-09-12T02:29:30.196Z,20.37
2017-09-12T02:29:58.209Z,20.38
2017-09-12T02:30:26.269Z,20.32
2017-09-12T02:30:54.315Z,20.37
2017-09-12T02:31:22.467Z,20.26
2017-09-12T02:31:50.397Z,20.32
2017-09-12T02:32:18.560Z,20.27
2017-09-12T02:32:46.622Z,20.29
2017-09-12T02:33:14.688Z,20.25
2017-09-12T02:33:42.871Z,20.23
2017-09-12T02:34:11.005Z,20.26
2017-09-12T02:34:38.968Z,20.29
2017-09-12T02:35:07.002Z,20.2
2017-09-12T02:35:35.068Z,20.23
2017-09-12T02:36:03.205Z,20.19
2017-09-12T02:36:31.324Z,20.23
2017-09-12T02:36:59.350Z,20.22
2017-09-12T02:37:27.402Z,20.12
2017-09-12T02:37:55.354Z,20.16
2017-09-12T02:38:23.182Z,20.18
2017-09-12T02:38:51.123Z,20.19
2017-09-12T02:39:19.150Z,20.18
2017-09-12T02:39:47.115Z,20.12
2017-09-12T02:40:15.066Z,20.2
2017-09-12T02:40:43.127Z,20.08
2017-09-12T02:41:11.130Z,20.12
2017-09-12T02:41:39.301Z,20.05
2017-09-12T02:42:07.253Z,20.15
2017-09-12T02:42:35.197Z,20.19
2017-09-12T02:43:03.372Z,20.2
2017-09-12T02:43:31.403Z,20.18
2017-09-12T02:43:59.454Z,20.18
2017-09-12T02:44:27.578Z,20.15
2017-09-12T02:44:55.671Z,20.07
2017-09-12T02:45:23.566Z,20.18
2017-09-12T02:45:51.600Z,20.2
2017-09-12T02:46:19.766Z,20.16
2017-09-12T02:46:47.631Z,20.18
2017-09-12T02:47:15.484Z,20.2
2017-09-12T02:47:43.436Z,20.08
2017-09-12T02:48:11.487Z,20.15
2017-09-12T02:48:39.349Z,20.19
2017-09-12T02:49:07.490Z,20.11
2017-09-12T02:49:35.440Z,20.11
2017-09-12T02:50:03.504Z,20.15
2017-09-12T02:50:31.532Z,20.11
2017-09-12T02:50:59.567Z,20.12
2017-09-12T02:51:27.813Z,20.07
2017-09-12T02:51:55.964Z,20.15
2017-09-12T02:52:24.106Z,20.04
2017-09-12T02:52:52.285Z,20.1
2017-09-12T02:53:20.120Z,20.16
2017-09-12T02:53:48.253Z,20.11
2017-09-12T02:54:16.410Z,20.11
2017-09-12T02:54:44.458Z,20.1
2017-09-12T02:55:12.399Z,20.1
2017-09-12T02:55:40.431Z,20.02
2017-09-12T02:56:08.596Z,20.05
2017-09-12T02:56:36.845Z,20.07
2017-09-12T02:57:04.803Z,20.1
2017-09-12T02:57:32.956Z,20.1
2017-09-12T02:58:01.006Z,20.11
2017-09-12T02:58:28.992Z,20.1
2017-09-12T02:58:56.932Z,20.05
2017-09-12T02:59:25.072Z,19.95
2017-09-12T02:59:52.903Z,19.98
2017-09-12T03:00:20.957Z,20
2017-09-12T03:00:49.085Z,20.04
2017-09-12T03:01:17.175Z,20
2017-09-12T03:01:45.304Z,19.97
2017-09-12T03:02:13.346Z,19.85
2017-09-12T03:02:41.281Z,19.95
2017-09-12T03:03:09.198Z,19.83
2017-09-12T03:03:37.120Z,19.8
2017-09-12T03:04:05.200Z,19.82
2017-09-12T03:04:33.124Z,19.78
2017-09-12T03:05:01.302Z,19.74
2017-09-12T03:05:29.129Z,19.78
2017-09-12T03:05:57.175Z,19.74
2017-09-12T03:06:25.337Z,19.72
2017-09-12T03:06:53.373Z,19.7
2017-09-12T03:07:21.516Z,19.72
2017-09-12T03:07:49.580Z,19.67
2017-09-12T03:08:17.653Z,19.68
2017-09-12T03:08:45.792Z,19.63
2017-09-12T03:09:13.739Z,19.57
2017-09-12T03:09:41.750Z,19.57
2017-09-12T03:10:09.779Z,19.61
2017-09-12T03:10:37.898Z,19.61
2017-09-12T03:11:05.948Z,19.57
2017-09-12T03:11:34.214Z,19.64
2017-09-12T03:12:02.165Z,19.53
2017-09-12T03:12:30.112Z,19.57
2017-09-12T03:12:58.286Z,19.52
2017-09-12T03:13:26.223Z,19.53
2017-09-12T03:13:54.074Z,19.53
2017-09-12T03:14:21.788Z,19.57
2017-09-12T03:14:49.858Z,19.55
2017-09-12T03:15:17.916Z,19.55
2017-09-12T03:15:45.880Z,19.5
2017-09-12T03:16:13.712Z,19.56
2017-09-12T03:16:41.733Z,19.53
2017-09-12T03:17:09.783Z,19.52
2017-09-12T03:17:37.613Z,19.56
2017-09-12T03:18:05.669Z,19.52
2017-09-12T03:18:33.804Z,19.5
2017-09-12T03:19:01.956Z,19.55
2017-09-12T03:19:29.994Z,19.53
2017-09-12T03:19:58.056Z,19.61
2017-09-12T03:20:26.007Z,19.47
2017-09-12T03:20:53.952Z,19.52
2017-09-12T03:21:22.108Z,19.53
2017-09-12T03:21:50.254Z,19.53
2017-09-12T03:22:18.172Z,19.45
2017-09-12T03:22:46.323Z,19.45
2017-09-12T03:23:14.503Z,19.49
2017-09-12T03:23:42.521Z,19.49
2017-09-12T03:24:10.339Z,19.4
2017-09-12T03:24:38.182Z,19.45
2017-09-12T03:25:06.324Z,19.45
2017-09-12T03:25:34.284Z,19.5
2017-09-12T03:26:02.339Z,19.42
2017-09-12T03:26:30.270Z,19.47
2017-09-12T03:26:58.246Z,19.37
2017-09-12T03:27:26.428Z,19.32
2017-09-12T03:27:54.470Z,19.31
2017-09-12T03:28:22.621Z,19.28
2017-09-12T03:28:50.690Z,19.35
2017-09-12T03:29:18.749Z,19.35
2017-09-12T03:29:46.901Z,19.34
2017-09-12T03:30:15.030Z,19.38
2017-09-12T03:30:42.981Z,19.35
2017-09-12T03:31:11.111Z,19.37
2017-09-12T03:31:39.048Z,19.47
2017-09-12T03:32:07.002Z,19.38
2017-09-12T03:32:34.972Z,19.46
2017-09-12T03:33:03.007Z,19.43
2017-09-12T03:33:31.157Z,19.5
2017-09-12T03:33:59.198Z,19.49
2017-09-12T03:34:27.320Z,19.55
2017-09-12T03:34:55.274Z,19.45
2017-09-12T03:35:23.427Z,19.37
2017-09-12T03:35:51.480Z,19.34
2017-09-12T03:36:19.426Z,19.32
2017-09-12T03:36:47.674Z,19.34
2017-09-12T03:37:15.652Z,19.4
2017-09-12T03:37:43.670Z,19.25
2017-09-12T03:38:11.790Z,19.31
2017-09-12T03:38:39.559Z,19.23
2017-09-12T03:39:07.627Z,19.19
2017-09-12T03:39:35.558Z,19.23
2017-09-12T03:40:03.610Z,19.16
2017-09-12T03:40:31.559Z,19.25
2017-09-12T03:40:59.606Z,19.24
2017-09-12T03:41:27.549Z,19.2
2017-09-12T03:41:55.592Z,19.15
2017-09-12T03:42:23.636Z,19.12
2017-09-12T03:42:51.684Z,19.16
2017-09-12T03:43:19.738Z,19.02
2017-09-12T03:43:47.579Z,19.15
2017-09-12T03:44:15.423Z,19.19
2017-09-12T03:44:43.382Z,19.1
2017-09-12T03:45:11.484Z,19.12
2017-09-12T03:45:39.513Z,19.17
2017-09-12T03:46:07.442Z,19.16
2017-09-12T03:46:35.409Z,19.12
2017-09-12T03:47:03.651Z,19.12
2017-09-12T03:47:31.614Z,19.13
2017-09-12T03:47:59.661Z,19.16
2017-09-12T03:48:27.598Z,19.17
2017-09-12T03:48:55.549Z,19.13
2017-09-12T03:49:23.588Z,19.1
2017-09-12T03:49:51.334Z,19.12
2017-09-12T03:50:19.487Z,19.1
2017-09-12T03:50:47.521Z,19.13
2017-09-12T03:51:15.375Z,19.07
2017-09-12T03:51:43.414Z,19.12
2017-09-12T03:52:11.686Z,19.06
2017-09-12T03:52:39.830Z,19.07
2017-09-12T03:53:07.977Z,19.12
2017-09-12T03:53:36.150Z,19.09
2017-09-12T03:54:04.288Z,19.07
2017-09-12T03:54:32.120Z,19.02
2017-09-12T03:55:00.171Z,19.06
2017-09-12T03:55:28.318Z,19.07
2017-09-12T03:55:56.274Z,19.02
2017-09-12T03:56:24.412Z,19
2017-09-12T03:56:52.474Z,19.05
2017-09-12T03:57:20.750Z,19.06
2017-09-12T03:57:48.727Z,19.05
2017-09-12T03:58:16.777Z,19.15
2017-09-12T03:58:44.853Z,19.02
2017-09-12T03:59:12.965Z,18.99
2017-09-12T03:59:41.026Z,18.99
2017-09-12T04:00:08.955Z,19
2017-09-12T04:00:36.920Z,19
2017-09-12T04:01:04.867Z,19
2017-09-12T04:01:32.881Z,19
2017-09-12T04:02:00.929Z,19.02
2017-09-12T04:02:29.056Z,19.05
2017-09-12T04:02:57.214Z,18.94
2017-09-12T04:03:25.232Z,19.02
2017-09-12T04:03:53.261Z,18.99
2017-09-12T04:04:21.401Z,18.96
2017-09-12T04:04:49.451Z,19.09
2017-09-12T04:05:17.379Z,19.06
2017-09-12T04:05:45.532Z,19
2017-09-12T04:06:13.657Z,18.99
2017-09-12T04:06:41.812Z,18.96
2017-09-12T04:07:09.846Z,18.96
2017-09-12T04:07:37.806Z,18.99
2017-09-12T04:08:05.948Z,18.96
2017-09-12T04:08:33.979Z,19
2017-09-12T04:09:01.829Z,18.94
2017-09-12T04:09:29.657Z,18.94
2017-09-12T04:09:57.586Z,18.93
2017-09-12T04:10:25.724Z,18.9
2017-09-12T04:10:53.448Z,18.89
2017-09-12T04:11:21.319Z,18.9
2017-09-12T04:11:49.137Z,18.91
2017-09-12T04:12:17.088Z,18.89
2017-09-12T04:12:45.035Z,18.89
2017-09-12T04:13:13.201Z,18.87
2017-09-12T04:13:41.242Z,18.82
2017-09-12T04:14:09.297Z,18.82
2017-09-12T04:14:37.460Z,18.87
2017-09-12T04:15:05.610Z,18.86
2017-09-12T04:15:33.657Z,18.82
2017-09-12T04:16:01.700Z,18.84
2017-09-12T04:16:29.873Z,18.87
2017-09-12T04:16:57.809Z,18.86
2017-09-12T04:17:25.934Z,18.84
2017-09-12T04:17:53.860Z,18.84
2017-09-12T04:18:21.910Z,18.82
2017-09-12T04:18:49.965Z,18.87
2017-09-12T04:19:17.864Z,18.81
2017-09-12T04:19:45.801Z,18.79
2017-09-12T04:20:13.752Z,18.79
2017-09-12T04:20:41.770Z,18.81
2017-09-12T04:21:09.717Z,18.79
2017-09-12T04:21:37.570Z,18.79
2017-09-12T04:22:05.656Z,18.74
2017-09-12T04:22:33.671Z,18.75
2017-09-12T04:23:01.840Z,18.71
2017-09-12T04:23:29.887Z,18.74
2017-09-12T04:23:57.829Z,18.71
2017-09-12T04:24:25.769Z,18.72
2017-09-12T04:24:53.932Z,18.78
2017-09-12T04:25:21.886Z,18.76
2017-09-12T04:25:49.740Z,18.74
2017-09-12T04:26:17.779Z,18.74
2017-09-12T04:26:45.750Z,18.76
2017-09-12T04:27:13.875Z,18.76
2017-09-12T04:27:41.896Z,18.76
2017-09-12T04:28:10.041Z,18.76
2017-09-12T04:28:38.457Z,18.74
2017-09-12T04:29:06.473Z,18.71
2017-09-12T04:29:34.513Z,18.74
2017-09-12T04:30:02.474Z,18.76
2017-09-12T04:30:30.526Z,18.76
2017-09-12T04:30:58.569Z,18.72
2017-09-12T04:31:26.589Z,18.72
2017-09-12T04:31:54.677Z,18.66
2017-09-12T04:32:22.740Z,18.72
2017-09-12T04:32:50.787Z,18.66
2017-09-12T04:33:18.737Z,18.74
2017-09-12T04:33:46.884Z,18.69
2017-09-12T04:34:15.028Z,18.69
2017-09-12T04:34:43.091Z,18.66
2017-09-12T04:35:10.960Z,18.66
2017-09-12T04:35:39.087Z,18.65
2017-09-12T04:36:07.025Z,18.63
2017-09-12T04:36:34.957Z,18.68
2017-09-12T04:37:02.891Z,18.65
2017-09-12T04:37:31.137Z,18.69
2017-09-12T04:37:59.198Z,18.66
2017-09-12T04:38:27.145Z,18.61
2017-09-12T04:38:55.073Z,18.66
2017-09-12T04:39:23.104Z,18.6
2017-09-12T04:39:50.960Z,18.69
2017-09-12T04:40:18.997Z,18.65
2017-09-12T04:40:47.028Z,18.65
2017-09-12T04:41:15.031Z,18.65
2017-09-12T04:41:43.172Z,18.69
2017-09-12T04:42:11.130Z,18.59
2017-09-12T04:42:39.405Z,18.66
2017-09-12T04:43:07.429Z,18.61
2017-09-12T04:43:35.381Z,18.56
2017-09-12T04:44:03.302Z,18.57
2017-09-12T04:44:31.436Z,18.63
2017-09-12T04:44:59.504Z,18.56
2017-09-12T04:45:27.458Z,18.6
2017-09-12T04:45:55.606Z,18.65
2017-09-12T04:46:23.572Z,18.63
2017-09-12T04:46:51.632Z,18.56
2017-09-12T04:47:19.796Z,18.57
2017-09-12T04:47:47.937Z,18.6
2017-09-12T04:48:15.995Z,18.56
2017-09-12T04:48:44.062Z,18.49
2017-09-12T04:49:12.011Z,18.51
2017-09-12T04:49:39.849Z,18.51
2017-09-12T04:50:07.807Z,18.49
2017-09-12T04:50:35.944Z,18.49
2017-09-12T04:51:04.001Z,18.53
2017-09-12T04:51:32.154Z,18.49
2017-09-12T04:52:00.107Z,18.5
2017-09-12T04:52:28.256Z,18.54
2017-09-12T04:52:56.403Z,18.39
2017-09-12T04:53:24.434Z,18.32
2017-09-12T04:53:52.498Z,18.42
2017-09-12T04:54:20.679Z,18.39
2017-09-12T04:54:48.675Z,18.41
2017-09-12T04:55:16.814Z,18.36
2017-09-12T04:55:44.757Z,18.39
2017-09-12T04:56:12.690Z,18.45
2017-09-12T04:56:40.849Z,18.51
2017-09-12T04:57:08.794Z,18.57
2017-09-12T04:57:36.950Z,18.72
2017-09-12T04:58:05.021Z,18.76
2017-09-12T04:58:33.077Z,18.93
2017-09-12T04:59:01.063Z,18.97
2017-09-12T04:59:29.224Z,18.99
2017-09-12T04:59:57.280Z,19.1
2017-09-12T05:00:25.423Z,19.23
2017-09-12T05:00:53.467Z,19.27
2017-09-12T05:01:21.519Z,19.34
2017-09-12T05:01:49.647Z,19.42
2017-09-12T05:02:17.774Z,19.47
2017-09-12T05:02:45.932Z,19.52
2017-09-12T05:03:14.102Z,19.57
2017-09-12T05:03:42.256Z,19.61
2017-09-12T05:04:10.318Z,19.68
2017-09-12T05:04:38.464Z,19.72
2017-09-12T05:05:06.481Z,19.8
2017-09-12T05:05:34.529Z,19.85
2017-09-12T05:06:02.608Z,19.9
2017-09-12T05:06:30.626Z,20.05
2017-09-12T05:06:58.592Z,20.07
2017-09-12T05:07:26.588Z,20.02
2017-09-12T05:07:54.830Z,20.16
2017-09-12T05:08:22.570Z,20.08
2017-09-12T05:08:50.508Z,20.15
2017-09-12T05:09:18.559Z,20.19
2017-09-12T05:09:46.682Z,20.19
2017-09-12T05:10:14.729Z,20.15
2017-09-12T05:10:42.670Z,20.23
2017-09-12T05:11:10.736Z,20.3
2017-09-12T05:11:38.887Z,20.25
2017-09-12T05:12:06.816Z,20.32
2017-09-12T05:12:34.846Z,20.4
2017-09-12T05:13:02.880Z,20.29
2017-09-12T05:13:30.816Z,20.41
2017-09-12T05:13:58.844Z,20.42
2017-09-12T05:14:26.792Z,20.46
2017-09-12T05:14:55.003Z,20.48
2017-09-12T05:15:23.071Z,20.44
2017-09-12T05:15:51.109Z,20.49
2017-09-12T05:16:19.063Z,20.35
2017-09-12T05:16:47.170Z,20.29
2017-09-12T05:17:15.240Z,20.4
2017-09-12T05:17:43.297Z,20.41
2017-09-12T05:18:11.367Z,20.3
2017-09-12T05:18:39.383Z,20.3
2017-09-12T05:19:07.437Z,20.27
2017-09-12T05:19:35.584Z,20.32
2017-09-12T05:20:03.733Z,20.26
2017-09-12T05:20:31.874Z,20.22
2017-09-12T05:20:59.721Z,20.34
2017-09-12T05:21:27.678Z,20.25
2017-09-12T05:21:55.726Z,20.26
2017-09-12T05:22:23.876Z,20.3
2017-09-12T05:22:52.031Z,20.32
2017-09-12T05:23:20.089Z,20.34
2017-09-12T05:23:48.145Z,20.29
2017-09-12T05:24:16.332Z,20.29
2017-09-12T05:24:44.373Z,20.29
2017-09-12T05:25:12.514Z,20.35
2017-09-12T05:25:40.544Z,20.25
2017-09-12T05:26:08.584Z,20.32
2017-09-12T05:26:36.628Z,20.29
2017-09-12T05:27:04.785Z,20.22
2017-09-12T05:27:32.862Z,20.2
2017-09-12T05:28:01.112Z,20.2
2017-09-12T05:28:29.072Z,20.23
2017-09-12T05:28:57.170Z,20.25
2017-09-12T05:29:25.136Z,20.23
2017-09-12T05:29:53.255Z,20.16
2017-09-12T05:30:21.275Z,20.2
2017-09-12T05:30:49.338Z,20.15
2017-09-12T05:31:17.393Z,20.05
2017-09-12T05:31:45.336Z,20.12
2017-09-12T05:32:13.369Z,20.07
2017-09-12T05:32:41.501Z,20.12
2017-09-12T05:33:09.565Z,20.02
2017-09-12T05:33:37.505Z,19.98
2017-09-12T05:34:05.468Z,19.92
2017-09-12T05:34:33.404Z,20.01
2017-09-12T05:35:01.451Z,20.11
2017-09-12T05:35:29.437Z,20.07
2017-09-12T05:35:57.413Z,20.19
2017-09-12T05:36:25.268Z,20.25
2017-09-12T05:36:53.292Z,20.26
2017-09-12T05:37:21.250Z,20.23
2017-09-12T05:37:49.305Z,20.29
2017-09-12T05:38:17.340Z,20.25
2017-09-12T05:38:45.402Z,20.29
2017-09-12T05:39:13.545Z,20.3
2017-09-12T05:39:41.675Z,20.22
2017-09-12T05:40:09.595Z,20.18
2017-09-12T05:40:37.620Z,20.16
2017-09-12T05:41:05.762Z,20.16
2017-09-12T05:41:33.886Z,20.16
2017-09-12T05:42:02.016Z,20.2
2017-09-12T05:42:29.950Z,20.18
2017-09-12T05:42:58.200Z,20.12
2017-09-12T05:43:26.311Z,20.11
2017-09-12T05:43:54.273Z,20.1
2017-09-12T05:44:22.351Z,20.1
2017-09-12T05:44:50.216Z,20.08
2017-09-12T05:45:18.153Z,20.15
2017-09-12T05:45:46.330Z,20.12
2017-09-12T05:46:14.286Z,20.2
2017-09-12T05:46:42.448Z,20.16
2017-09-12T05:47:10.502Z,20.29
2017-09-12T05:47:38.561Z,20.3
2017-09-12T05:48:06.778Z,20.29
2017-09-12T05:48:34.924Z,20.22
2017-09-12T05:49:03.071Z,20.32
2017-09-12T05:49:31.102Z,20.26
2017-09-12T05:49:59.039Z,20.23
2017-09-12T05:50:27.078Z,20.38
2017-09-12T05:50:55.135Z,20.44
2017-09-12T05:51:23.183Z,20.34
2017-09-12T05:51:51.154Z,20.37
2017-09-12T05:52:19.313Z,20.48
2017-09-12T05:52:47.440Z,20.41
2017-09-12T05:53:15.543Z,20.41
2017-09-12T05:53:43.573Z,20.44
2017-09-12T05:54:11.537Z,20.44
2017-09-12T05:54:39.580Z,20.46
2017-09-12T05:55:07.738Z,20.44
2017-09-12T05:55:35.641Z,20.48
2017-09-12T05:56:03.514Z,20.32
2017-09-12T05:56:31.547Z,20.35
2017-09-12T05:56:59.697Z,20.35
2017-09-12T05:57:27.626Z,20.34
2017-09-12T05:57:55.741Z,20.46
2017-09-12T05:58:23.866Z,20.35
2017-09-12T05:58:51.712Z,20.4
2017-09-12T05:59:19.760Z,20.4
2017-09-12T05:59:47.808Z,20.4
2017-09-12T06:00:15.752Z,20.35
2017-09-12T06:00:43.774Z,20.35
2017-09-12T06:01:11.740Z,20.46
2017-09-12T06:01:39.697Z,20.51
2017-09-12T06:02:07.869Z,20.44
2017-09-12T06:02:35.904Z,20.54
2017-09-12T06:03:04.072Z,20.6